Time;durP1;ratioP1;P1;durP2;ratioP2;P2;SDS_P1;SDS_P2;PMS_P1;PMS_P2;Temp;Humidity;BMP_temperature;BMP_pressure;BME280_temperature;BME280_humidity;BME280_pressure;Samples;Min_cycle;Max_cycle;Signal;HPM_P1;HPM_P2
2020/12/05 00:01:16;;;;;;;53.85;27.45;;;1.80;99.90;;;;;;5013836;28;20375;-75
2020/12/05 00:03:41;;;;;;;51.15;25.38;;;1.80;99.90;;;;;;5013738;28;20022;-75
2020/12/05 00:06:07;;;;;;;53.72;26.08;;;1.70;99.90;;;;;;4996227;28;20054;-75
2020/12/05 00:08:33;;;;;;;55.92;25.92;;;1.80;99.90;;;;;;4993056;28;20040;-75
2020/12/05 00:10:59;;;;;;;52.25;27.30;;;1.80;99.90;;;;;;5011800;28;20061;-75
2020/12/05 00:13:24;;;;;;;50.50;26.08;;;1.70;99.90;;;;;;5029078;28;20054;-75
2020/12/05 00:15:50;;;;;;;54.22;26.08;;;1.70;99.90;;;;;;5003066;28;20562;-75
2020/12/05 00:18:18;;;;;;;52.67;27.65;;;1.70;99.90;;;;;;4993990;28;20029;-75
2020/12/05 00:20:44;;;;;;;56.85;28.17;;;1.60;99.90;;;;;;5008950;28;20398;-75
2020/12/05 00:23:09;;;;;;;50.35;25.70;;;1.50;99.90;;;;;;4993927;28;20106;-75
2020/12/05 00:25:35;;;;;;;59.67;27.13;;;1.50;99.90;;;;;;5008110;28;20058;-75
2020/12/05 00:28:00;;;;;;;53.78;27.20;;;1.40;99.90;;;;;;5012179;28;20026;-75
2020/12/05 00:30:28;;;;;;;52.33;25.33;;;1.30;99.90;;;;;;5013373;28;20034;-76
2020/12/05 00:32:56;;;;;;;54.75;26.77;;;1.20;99.90;;;;;;5013246;28;20080;-75
2020/12/05 00:35:22;;;;;;;55.40;27.02;;;1.10;99.90;;;;;;5002084;28;20034;-75
2020/12/05 00:37:47;;;;;;;56.55;27.83;;;1.20;99.90;;;;;;4993737;28;20034;-75
2020/12/05 00:40:12;;;;;;;57.05;27.63;;;1.20;99.90;;;;;;4992280;28;20026;-75
2020/12/05 00:42:38;;;;;;;56.63;27.92;;;1.20;99.90;;;;;;4993545;28;20034;-75
2020/12/05 00:45:03;;;;;;;56.85;27.08;;;1.20;99.90;;;;;;4998266;28;20489;-75
2020/12/05 00:47:29;;;;;;;58.10;27.75;;;1.30;99.90;;;;;;5013051;28;20025;-75
2020/12/05 00:49:55;;;;;;;50.72;27.88;;;1.30;99.90;;;;;;5013180;28;20414;-75
2020/12/05 00:52:22;;;;;;;68.03;31.05;;;1.40;99.90;;;;;;5012946;28;20045;-75
2020/12/05 00:54:48;;;;;;;57.50;29.65;;;1.50;99.90;;;;;;5012141;28;20037;-75
2020/12/05 00:57:13;;;;;;;64.80;28.55;;;1.60;99.90;;;;;;5011695;28;20121;-75
2020/12/05 00:59:39;;;;;;;63.45;30.80;;;1.70;99.90;;;;;;5012883;28;20022;-75
2020/12/05 01:02:04;;;;;;;59.65;30.35;;;1.70;99.90;;;;;;5012713;28;20105;-75
2020/12/05 01:04:30;;;;;;;70.13;32.70;;;1.80;99.90;;;;;;5011390;28;20030;-75
2020/12/05 01:06:55;;;;;;;61.38;30.42;;;1.90;99.90;;;;;;5012745;28;20088;-75
2020/12/05 01:09:20;;;;;;;62.38;29.77;;;1.90;99.90;;;;;;5007974;28;20070;-75
2020/12/05 01:11:46;;;;;;;61.92;29.85;;;1.90;99.90;;;;;;4991731;28;20065;-75
2020/12/05 01:14:12;;;;;;;57.70;30.13;;;2.00;99.90;;;;;;4992872;28;20026;-75
2020/12/05 01:16:38;;;;;;;58.08;29.25;;;2.00;99.90;;;;;;5010068;28;20034;-74
2020/12/05 01:19:03;;;;;;;59.67;28.83;;;2.10;99.90;;;;;;5012585;28;20046;-75
2020/12/05 01:21:29;;;;;;;52.53;27.65;;;2.00;99.90;;;;;;5012542;28;20029;-74
2020/12/05 01:23:54;;;;;;;55.15;28.20;;;2.00;99.90;;;;;;5011042;28;20025;-75
2020/12/05 01:26:23;;;;;;;55.60;28.05;;;2.00;99.90;;;;;;4992899;28;20026;-74
2020/12/05 01:28:48;;;;;;;64.50;29.77;;;2.00;99.90;;;;;;4991551;28;20026;-74
2020/12/05 01:31:14;;;;;;;48.60;25.88;;;2.00;99.90;;;;;;4992553;28;20393;-75
2020/12/05 01:33:40;;;;;;;59.17;30.67;;;2.10;99.90;;;;;;4992639;28;20027;-75
2020/12/05 01:36:05;;;;;;;56.40;29.30;;;2.10;99.90;;;;;;5008253;28;20113;-75
2020/12/05 01:38:31;;;;;;;57.85;29.63;;;2.10;99.90;;;;;;5012313;28;20054;-75
2020/12/05 01:40:58;;;;;;;57.40;30.48;;;2.20;99.90;;;;;;5027049;28;20028;-75
2020/12/05 01:43:25;;;;;;;65.68;31.90;;;2.20;99.90;;;;;;5012344;28;20026;-75
2020/12/05 01:45:51;;;;;;;57.47;31.08;;;2.20;99.90;;;;;;4999334;28;20041;-76
2020/12/05 01:48:17;;;;;;;58.70;29.90;;;2.30;99.90;;;;;;4992646;28;20030;-75
2020/12/05 01:50:44;;;;;;;60.50;29.45;;;2.20;99.90;;;;;;4992511;28;20027;-75
2020/12/05 01:53:11;;;;;;;58.25;29.75;;;2.30;99.90;;;;;;4992615;28;20026;-75
2020/12/05 01:55:37;;;;;;;59.10;29.40;;;2.20;99.90;;;;;;5006786;28;20109;-74
2020/12/05 01:58:02;;;;;;;60.85;31.48;;;2.20;99.90;;;;;;5010723;28;20026;-75
2020/12/05 02:00:28;;;;;;;61.55;31.08;;;2.20;99.90;;;;;;5011852;28;20037;-75
2020/12/05 02:02:53;;;;;;;60.72;30.85;;;2.20;99.90;;;;;;5012002;28;20018;-75
2020/12/05 02:05:48;;;;;;;63.55;31.83;;;2.20;99.90;;;;;;5017165;28;20486;-75
2020/12/05 02:08:18;;;;;;;66.22;32.13;;;2.20;99.90;;;;;;5009392;28;20033;-75
2020/12/05 02:10:49;;;;;;;70.32;33.08;;;2.20;99.90;;;;;;5011467;28;20018;-75
2020/12/05 02:13:39;;;;;;;60.80;30.75;;;2.20;99.90;;;;;;5010726;28;20394;-75
2020/12/05 02:16:06;;;;;;;65.18;32.50;;;2.30;99.90;;;;;;4998780;28;20027;-75
2020/12/05 02:18:33;;;;;;;63.63;30.63;;;2.30;99.90;;;;;;4992327;28;20034;-75
2020/12/05 02:21:03;;;;;;;74.00;32.20;;;2.20;99.90;;;;;;4990974;28;20026;-75
2020/12/05 02:23:29;;;;;;;61.90;30.95;;;2.20;99.90;;;;;;4992208;28;20030;-75
2020/12/05 02:25:58;;;;;;;61.58;30.27;;;2.20;99.90;;;;;;5007250;28;20037;-75
2020/12/05 02:28:24;;;;;;;59.45;30.75;;;2.20;99.90;;;;;;5011732;28;20026;-75
2020/12/05 02:30:50;;;;;;;62.50;33.53;;;2.20;99.90;;;;;;5011572;28;20363;-74
2020/12/05 02:33:20;;;;;;;60.78;30.42;;;2.20;99.90;;;;;;5011781;28;20033;-75
2020/12/05 02:35:46;;;;;;;62.13;32.05;;;2.20;99.90;;;;;;4996739;28;20442;-75
2020/12/05 02:38:23;;;;;;;55.35;31.35;;;2.20;99.90;;;;;;4992147;28;20053;-75
2020/12/05 02:40:49;;;;;;;60.35;31.90;;;2.20;99.90;;;;;;4991952;28;20038;-75
2020/12/05 02:43:15;;;;;;;66.50;32.08;;;2.20;99.90;;;;;;4991988;28;20651;-75
2020/12/05 02:45:41;;;;;;;68.68;34.35;;;2.20;99.90;;;;;;5001207;28;20037;-75
2020/12/05 02:48:08;;;;;;;62.70;32.65;;;2.20;99.90;;;;;;5011611;28;20483;-75
2020/12/05 02:50:33;;;;;;;60.85;33.00;;;2.20;99.90;;;;;;5011444;28;20026;-75
2020/12/05 02:52:59;;;;;;;66.72;33.80;;;2.20;99.90;;;;;;5011518;28;20114;-75
2020/12/05 02:55:24;;;;;;;64.90;33.28;;;2.30;99.90;;;;;;4997963;28;20041;-75
2020/12/05 02:57:50;;;;;;;58.92;31.05;;;2.30;99.90;;;;;;5008415;28;20025;-75
2020/12/05 03:00:15;;;;;;;65.55;33.53;;;2.20;99.90;;;;;;4994291;28;20018;-75
2020/12/05 03:02:41;;;;;;;58.13;31.58;;;2.20;99.90;;;;;;4995420;28;20065;-75
2020/12/05 03:05:06;;;;;;;53.45;29.38;;;2.20;99.90;;;;;;5000771;28;20040;-75
2020/12/05 03:07:32;;;;;;;56.55;30.20;;;2.20;99.90;;;;;;5014981;28;20069;-75
2020/12/05 03:09:58;;;;;;;56.05;30.17;;;2.20;99.90;;;;;;5005300;28;20034;-75
2020/12/05 03:12:23;;;;;;;60.45;32.70;;;2.20;99.90;;;;;;4993930;28;20121;-75
2020/12/05 03:14:49;;;;;;;69.40;32.85;;;2.20;99.90;;;;;;4994850;28;20079;-75
2020/12/05 03:17:14;;;;;;;57.63;30.40;;;2.20;99.90;;;;;;4995132;28;20395;-75
2020/12/05 03:19:40;;;;;;;62.95;32.20;;;2.10;99.90;;;;;;4995479;28;20031;-75
2020/12/05 03:22:06;;;;;;;60.35;30.35;;;2.20;99.90;;;;;;4994949;28;20563;-75
2020/12/05 03:24:31;;;;;;;64.93;33.75;;;2.20;99.90;;;;;;5000444;28;20032;-75
2020/12/05 03:26:57;;;;;;;61.92;30.63;;;2.20;99.90;;;;;;5014737;28;20441;-75
2020/12/05 03:29:23;;;;;;;62.17;32.15;;;2.20;99.90;;;;;;5014665;28;20030;-75
2020/12/05 03:31:52;;;;;;;61.25;32.50;;;2.20;99.90;;;;;;5013069;28;20486;-75
2020/12/05 03:34:17;;;;;;;69.72;35.60;;;2.20;99.90;;;;;;5011688;28;20045;-75
2020/12/05 03:36:44;;;;;;;69.38;34.15;;;2.30;99.90;;;;;;4994826;28;20398;-75
2020/12/05 03:39:10;;;;;;;75.35;36.72;;;2.30;99.90;;;;;;4994753;28;20486;-75
2020/12/05 03:41:36;;;;;;;65.82;35.13;;;2.30;99.90;;;;;;4993445;28;20025;-75
2020/12/05 03:44:01;;;;;;;76.15;36.22;;;2.30;99.90;;;;;;4993332;28;20018;-75
2020/12/05 03:46:27;;;;;;;73.60;35.90;;;2.30;99.90;;;;;;5009589;28;20556;-75
2020/12/05 03:48:53;;;;;;;63.35;34.63;;;2.30;99.90;;;;;;5028407;28;20037;-75
2020/12/05 03:51:18;;;;;;;70.53;36.13;;;2.30;99.90;;;;;;5013920;28;20034;-75
2020/12/05 03:53:44;;;;;;;72.80;37.22;;;2.30;99.90;;;;;;5013916;28;20041;-74
2020/12/05 03:56:09;;;;;;;77.57;36.75;;;2.30;99.90;;;;;;4993461;28;20113;-75
2020/12/05 03:58:35;;;;;;;77.35;37.05;;;2.30;99.90;;;;;;4993251;28;20541;-75
2020/12/05 04:01:00;;;;;;;75.03;37.63;;;2.30;99.90;;;;;;4994427;28;20053;-75
2020/12/05 04:03:26;;;;;;;94.53;41.83;;;2.40;99.90;;;;;;4994314;28;20034;-75
2020/12/05 04:05:51;;;;;;;84.70;41.13;;;2.40;99.90;;;;;;5008296;28;20061;-75
2020/12/05 04:08:17;;;;;;;84.85;42.92;;;2.50;99.90;;;;;;5013477;28;20026;-75
2020/12/05 04:10:42;;;;;;;90.95;43.10;;;2.50;99.90;;;;;;5012848;28;20092;-75
2020/12/05 04:13:08;;;;;;;89.82;43.58;;;2.60;99.90;;;;;;5013749;28;20032;-75
2020/12/05 04:15:34;;;;;;;105.10;45.85;;;2.60;99.90;;;;;;5012834;28;20034;-75
2020/12/05 04:17:59;;;;;;;93.55;44.03;;;2.60;99.90;;;;;;5013271;28;20022;-75
2020/12/05 04:20:25;;;;;;;93.15;45.60;;;2.70;99.90;;;;;;5012393;28;20032;-75
2020/12/05 04:22:50;;;;;;;90.65;46.15;;;2.70;99.90;;;;;;5013571;28;20045;-75
2020/12/05 04:25:16;;;;;;;101.43;47.22;;;2.80;99.90;;;;;;5001336;28;20042;-75
2020/12/05 04:27:41;;;;;;;89.53;44.38;;;2.80;99.90;;;;;;4993952;28;20018;-75
2020/12/05 04:30:08;;;;;;;98.18;47.58;;;2.90;99.90;;;;;;4993858;28;20050;-75
2020/12/05 04:32:33;;;;;;;111.93;47.00;;;2.90;99.90;;;;;;5008862;28;20482;-75
2020/12/05 04:34:59;;;;;;;107.13;47.92;;;3.00;99.90;;;;;;5014833;28;20057;-75
2020/12/05 04:37:25;;;;;;;98.97;47.88;;;3.00;99.90;;;;;;5013302;28;20028;-75
2020/12/05 04:39:51;;;;;;;105.63;51.10;;;3.00;99.90;;;;;;5012936;28;20106;-75
2020/12/05 04:42:17;;;;;;;99.28;47.17;;;3.10;99.90;;;;;;5013209;28;20455;-75
2020/12/05 04:44:42;;;;;;;94.18;45.88;;;3.10;99.90;;;;;;5011225;28;20029;-75
2020/12/05 04:47:10;;;;;;;92.35;45.97;;;3.20;99.90;;;;;;4993421;28;20033;-75
2020/12/05 04:49:36;;;;;;;87.13;44.83;;;3.10;99.90;;;;;;4993531;28;20022;-75
2020/12/05 04:52:18;;;;;;;96.90;46.03;;;3.10;99.90;;;;;;4993339;28;20054;-75
2020/12/05 04:54:50;;;;;;;92.90;43.78;;;3.10;99.90;;;;;;5000374;28;20053;-75
2020/12/05 04:57:20;;;;;;;98.45;45.50;;;3.20;99.90;;;;;;5013016;28;20037;-75
2020/12/05 04:59:47;;;;;;;104.07;48.85;;;3.20;99.90;;;;;;5012866;28;20033;-75
2020/12/05 05:02:14;;;;;;;97.93;48.03;;;3.20;99.90;;;;;;5012770;28;20072;-75
2020/12/05 05:04:40;;;;;;;107.93;51.58;;;3.30;99.90;;;;;;5008317;28;20030;-75
2020/12/05 05:07:05;;;;;;;105.53;47.15;;;3.30;99.90;;;;;;4994256;28;20105;-75
2020/12/05 05:09:31;;;;;;;108.90;47.33;;;3.40;99.90;;;;;;4991891;28;20033;-75
2020/12/05 05:11:57;;;;;;;100.75;47.10;;;3.40;99.90;;;;;;4992943;28;20027;-75
2020/12/05 05:14:32;;;;;;;102.82;47.65;;;3.40;99.90;;;;;;4992891;28;20475;-75
2020/12/05 05:17:05;;;;;;;110.10;50.55;;;3.40;99.90;;;;;;5008043;28;20450;-75
2020/12/05 05:19:35;;;;;;;97.63;48.78;;;3.40;99.90;;;;;;5008194;28;20034;-75
2020/12/05 05:22:01;;;;;;;103.00;47.70;;;3.50;99.90;;;;;;4992601;28;20497;-75
2020/12/05 05:24:26;;;;;;;98.50;47.92;;;3.50;99.90;;;;;;4997396;28;20030;-75
2020/12/05 05:27:03;;;;;;;89.80;48.40;;;3.50;99.90;;;;;;5012554;28;20355;-75
2020/12/05 05:29:44;;;;;;;98.85;45.60;;;3.50;99.90;;;;;;5027698;28;20034;-75
2020/12/05 05:32:23;;;;;;;93.13;45.85;;;3.40;99.90;;;;;;5012292;28;20034;-75
2020/12/05 05:34:48;;;;;;;85.57;44.10;;;3.30;99.90;;;;;;5006793;28;20037;-75
2020/12/05 05:37:16;;;;;;;85.70;44.42;;;3.40;99.90;;;;;;4992683;28;20034;-75
2020/12/05 05:39:51;;;;;;;87.53;43.17;;;3.40;99.90;;;;;;4992668;28;20038;-75
2020/12/05 05:42:30;;;;;;;87.32;45.58;;;3.40;99.90;;;;;;4992629;28;20610;-75
2020/12/05 05:45:25;;;;;;;78.65;42.13;;;3.30;99.90;;;;;;4995363;28;20083;-75
2020/12/05 05:48:02;;;;;;;80.00;41.45;;;3.30;99.90;;;;;;5015802;28;20038;-75
2020/12/05 05:50:32;;;;;;;86.38;42.83;;;3.20;99.90;;;;;;5012103;28;20026;-75
2020/12/05 05:53:00;;;;;;;79.72;41.60;;;3.20;99.90;;;;;;5012103;28;20026;-75
2020/12/05 05:55:39;;;;;;;87.47;43.70;;;3.20;99.90;;;;;;5013810;28;20613;-75
2020/12/05 05:58:06;;;;;;;92.72;45.05;;;3.20;99.90;;;;;;4991272;28;20118;-75
2020/12/05 06:00:39;;;;;;;78.75;43.72;;;3.10;99.90;;;;;;4992292;28;20396;-75
2020/12/05 06:03:16;;;;;;;82.45;42.13;;;3.10;99.90;;;;;;4991283;28;20491;-75
2020/12/05 06:05:47;;;;;;;93.15;42.38;;;3.10;99.90;;;;;;5003124;28;20037;-75
2020/12/05 06:08:19;;;;;;;74.43;40.90;;;3.10;99.90;;;;;;5010668;28;20030;-75
2020/12/05 06:10:56;;;;;;;84.15;40.63;;;3.10;99.90;;;;;;5011669;28;20100;-75
2020/12/05 06:13:28;;;;;;;86.35;42.35;;;3.20;99.90;;;;;;5010763;28;20029;-75
2020/12/05 06:15:53;;;;;;;79.95;40.95;;;3.10;99.90;;;;;;5000403;28;20027;-75
2020/12/05 06:18:20;;;;;;;80.13;40.63;;;3.20;99.90;;;;;;4992333;28;20041;-76
2020/12/05 06:20:46;;;;;;;81.38;40.22;;;3.10;99.90;;;;;;4992147;28;20027;-75
2020/12/05 06:23:28;;;;;;;78.90;40.35;;;3.20;99.90;;;;;;4992206;28;20031;-75
2020/12/05 06:25:55;;;;;;;80.68;39.20;;;3.20;99.90;;;;;;5007287;28;20030;-75
2020/12/05 06:28:22;;;;;;;85.32;40.45;;;3.20;99.90;;;;;;5011826;28;20505;-75
2020/12/05 06:30:48;;;;;;;83.03;41.78;;;3.20;99.90;;;;;;5011614;28;20034;-75
2020/12/05 06:33:37;;;;;;;82.40;42.55;;;3.20;99.90;;;;;;5012689;28;20034;-75
2020/12/05 06:36:29;;;;;;;81.93;42.63;;;3.20;99.90;;;;;;4998735;28;20030;-75
2020/12/05 06:39:06;;;;;;;89.38;44.83;;;3.20;99.90;;;;;;4994553;28;20025;-75
2020/12/05 06:41:36;;;;;;;89.68;45.78;;;3.10;99.90;;;;;;4995896;28;20703;-75
2020/12/05 06:44:12;;;;;;;92.20;44.20;;;3.20;99.90;;;;;;4994486;28;20019;-75
2020/12/05 06:46:47;;;;;;;94.80;48.03;;;3.20;99.90;;;;;;5011306;28;20482;-75
2020/12/05 06:49:39;;;;;;;98.30;48.63;;;3.20;99.90;;;;;;5015419;28;20033;-75
2020/12/05 06:52:25;;;;;;;98.38;48.05;;;3.30;99.90;;;;;;5015044;28;20106;-75
2020/12/05 06:54:56;;;;;;;86.53;44.38;;;3.30;99.90;;;;;;5006590;28;20035;-75
2020/12/05 06:57:24;;;;;;;98.32;45.22;;;3.40;99.90;;;;;;4994338;28;20483;-75
2020/12/05 06:59:49;;;;;;;95.05;47.72;;;3.40;99.90;;;;;;4995576;28;20034;-75
2020/12/05 07:02:28;;;;;;;97.00;48.00;;;3.40;99.90;;;;;;4995488;28;20030;-75
2020/12/05 07:05:16;;;;;;;107.45;51.08;;;3.40;99.90;;;;;;5000764;28;20136;-75
2020/12/05 07:07:41;;;;;;;97.50;49.53;;;3.40;99.90;;;;;;5014674;28;20038;-75
2020/12/05 07:10:07;;;;;;;99.75;47.15;;;3.40;99.90;;;;;;5004377;28;20039;-75
2020/12/05 07:12:36;;;;;;;95.65;45.60;;;3.40;99.90;;;;;;4995287;28;20069;-75
2020/12/05 07:15:25;;;;;;;105.47;49.50;;;3.40;99.90;;;;;;4998533;28;20025;-75
2020/12/05 07:17:51;;;;;;;99.20;49.30;;;3.40;99.90;;;;;;5014827;28;20069;-75
2020/12/05 07:20:17;;;;;;;101.93;49.45;;;3.40;99.90;;;;;;5014885;28;20076;-75
2020/12/05 07:22:44;;;;;;;100.60;51.65;;;3.50;99.90;;;;;;5014683;28;20475;-75
2020/12/05 07:25:11;;;;;;;99.28;49.20;;;3.40;99.90;;;;;;5014112;28;20029;-75
2020/12/05 07:27:36;;;;;;;102.72;51.05;;;3.40;99.90;;;;;;5014602;28;20036;-75
2020/12/05 07:30:06;;;;;;;107.07;49.80;;;3.40;99.90;;;;;;5013406;28;20025;-75
2020/12/05 07:32:33;;;;;;;102.70;51.63;;;3.40;99.90;;;;;;5014581;28;20045;-75
2020/12/05 07:35:01;;;;;;;97.53;51.15;;;3.40;99.90;;;;;;5009652;28;20057;-75
2020/12/05 07:37:28;;;;;;;106.40;51.25;;;3.30;99.90;;;;;;5011545;28;20033;-75
2020/12/05 07:39:54;;;;;;;106.50;51.60;;;3.30;99.90;;;;;;5013785;28;20022;-75
2020/12/05 07:42:20;;;;;;;93.70;47.72;;;3.30;99.90;;;;;;5014316;28;20073;-75
2020/12/05 07:44:47;;;;;;;104.22;52.47;;;3.30;99.90;;;;;;5011949;28;20042;-75
2020/12/05 07:47:20;;;;;;;110.00;53.75;;;3.40;99.90;;;;;;4994633;28;20805;-75
2020/12/05 07:49:52;;;;;;;110.27;52.47;;;3.30;99.90;;;;;;4994761;28;20045;-75
2020/12/05 07:52:22;;;;;;;100.45;49.05;;;3.30;99.90;;;;;;4994507;28;20038;-75
2020/12/05 07:54:59;;;;;;;110.40;52.10;;;3.30;99.90;;;;;;5000641;28;20103;-75
2020/12/05 07:57:26;;;;;;;110.20;51.63;;;3.20;99.90;;;;;;5014070;28;20492;-74
2020/12/05 08:00:05;;;;;;;96.38;49.22;;;3.30;99.90;;;;;;5014065;28;20030;-74
2020/12/05 08:02:33;;;;;;;106.25;51.05;;;3.30;99.90;;;;;;5010831;28;20108;-75
2020/12/05 08:05:05;;;;;;;120.95;53.17;;;3.30;99.90;;;;;;5012692;28;20018;-75
2020/12/05 08:07:37;;;;;;;103.30;50.67;;;3.30;99.90;;;;;;5026976;28;20026;-75
2020/12/05 08:10:11;;;;;;;111.43;53.90;;;3.40;99.90;;;;;;5013625;28;20034;-74
2020/12/05 08:12:54;;;;;;;;;;;3.40;99.90;;;;;;5013385;28;20030;-75
2020/12/05 08:15:21;;;;;;;110.22;53.60;;;3.40;99.90;;;;;;5006116;28;20404;-75
2020/12/05 08:17:48;;;;;;;126.28;56.38;;;3.50;99.90;;;;;;4992676;28;20507;-75
2020/12/05 08:20:14;;;;;;;124.10;57.83;;;3.50;99.90;;;;;;4993892;28;20031;-75
2020/12/05 08:22:41;;;;;;;106.95;51.97;;;3.50;99.90;;;;;;4993854;28;20026;-75
2020/12/05 08:25:10;;;;;;;109.95;53.58;;;3.50;99.90;;;;;;4992416;28;20138;-76
2020/12/05 08:27:36;;;;;;;119.82;53.95;;;3.50;99.90;;;;;;4993815;28;20498;-75
2020/12/05 08:30:04;;;;;;;120.68;54.65;;;3.60;99.90;;;;;;4993630;28;20121;-76
2020/12/05 08:32:30;;;;;;;115.05;54.72;;;3.60;99.90;;;;;;4993696;28;20490;-76
2020/12/05 08:35:07;;;;;;;111.55;53.75;;;3.60;99.90;;;;;;4993485;28;20062;-76
2020/12/05 08:37:33;;;;;;;105.03;51.83;;;3.60;99.90;;;;;;4992243;28;20038;-76
2020/12/05 08:39:59;;;;;;;104.57;51.97;;;3.60;99.90;;;;;;4992378;28;20034;-77
2020/12/05 08:42:25;;;;;;;117.82;53.00;;;3.60;99.90;;;;;;5008575;28;20073;-77
2020/12/05 08:44:51;;;;;;;109.43;52.65;;;3.70;99.90;;;;;;4992101;28;20026;-77
2020/12/05 08:47:17;;;;;;;116.40;53.58;;;3.60;99.90;;;;;;4993205;28;20044;-76
2020/12/05 08:49:45;;;;;;;103.70;50.90;;;3.70;99.90;;;;;;4992259;28;20026;-74
2020/12/05 08:52:11;;;;;;;103.22;51.63;;;3.80;99.90;;;;;;4993331;28;20081;-74
2020/12/05 08:54:53;;;;;;;100.38;52.28;;;3.90;99.90;;;;;;4992936;28;20128;-74
2020/12/05 08:57:20;;;;;;;104.57;49.90;;;4.00;99.90;;;;;;4993123;28;20041;-75
2020/12/05 08:59:46;;;;;;;98.70;49.53;;;4.00;99.90;;;;;;4993253;28;20023;-75
2020/12/05 09:02:13;;;;;;;96.53;47.90;;;4.10;99.90;;;;;;4993228;28;20084;-75
2020/12/05 09:04:39;;;;;;;110.43;52.03;;;4.00;99.90;;;;;;4992922;28;20390;-74
2020/12/05 09:07:16;;;;;;;107.18;53.78;;;4.10;99.90;;;;;;4991962;28;20022;-75
2020/12/05 09:09:43;;;;;;;103.47;51.03;;;4.10;99.90;;;;;;4991693;28;20121;-74
2020/12/05 09:12:17;;;;;;;103.95;52.95;;;4.10;99.90;;;;;;4993058;28;20034;-75
2020/12/05 09:14:47;;;;;;;101.10;52.03;;;4.00;99.90;;;;;;4992898;28;20129;-75
2020/12/05 09:17:26;;;;;;;104.05;50.00;;;4.00;99.90;;;;;;4993322;28;20022;-75
2020/12/05 09:19:58;;;;;;;100.50;51.70;;;4.00;99.90;;;;;;4992744;28;20109;-74
2020/12/05 09:22:29;;;;;;;102.88;50.65;;;3.90;99.90;;;;;;4992974;28;20022;-75
2020/12/05 09:24:54;;;;;;;101.30;52.00;;;3.90;99.90;;;;;;4992566;28;20073;-75
2020/12/05 09:27:19;;;;;;;100.82;51.45;;;3.90;99.90;;;;;;5003661;28;20428;-75
2020/12/05 09:29:45;;;;;;;98.28;49.45;;;3.90;99.90;;;;;;5030556;28;20033;-75
2020/12/05 09:32:10;;;;;;;103.05;49.28;;;3.90;99.90;;;;;;5031915;28;20063;-75
2020/12/05 09:34:37;;;;;;;93.03;47.47;;;3.80;99.90;;;;;;5031665;28;20421;-75
2020/12/05 09:37:13;;;;;;;99.15;50.40;;;3.80;99.90;;;;;;5031869;28;20021;-74
2020/12/05 09:39:39;;;;;;;98.57;48.05;;;3.90;99.90;;;;;;5032030;28;20114;-74
2020/12/05 09:42:05;;;;;;;92.55;49.95;;;3.80;99.90;;;;;;5030600;28;20502;-74
2020/12/05 09:44:32;;;;;;;91.15;45.45;;;3.80;99.90;;;;;;5031786;28;20041;-74
2020/12/05 09:46:57;;;;;;;97.93;46.95;;;3.80;99.90;;;;;;5030348;28;20573;-75
2020/12/05 09:49:23;;;;;;;85.43;46.83;;;3.90;99.90;;;;;;5031902;28;20108;-74
2020/12/05 09:51:48;;;;;;;88.22;47.65;;;3.90;99.90;;;;;;5031844;28;20485;-75
2020/12/05 09:54:13;;;;;;;97.50;46.10;;;3.90;99.90;;;;;;5030312;28;20036;-74
2020/12/05 09:56:39;;;;;;;88.20;48.10;;;3.90;99.90;;;;;;5030524;28;20048;-74
2020/12/05 09:59:04;;;;;;;87.85;46.65;;;3.90;99.90;;;;;;5031734;28;20033;-74
2020/12/05 10:01:30;;;;;;;89.93;47.75;;;3.90;99.90;;;;;;5031632;28;20044;-74
2020/12/05 10:03:56;;;;;;;90.10;45.33;;;3.90;99.90;;;;;;5031475;28;20052;-74
2020/12/05 10:06:22;;;;;;;96.90;46.22;;;3.80;99.90;;;;;;5032521;28;20049;-74
2020/12/05 10:08:47;;;;;;;93.45;46.72;;;3.80;99.90;;;;;;5035860;28;20032;-74
2020/12/05 10:11:13;;;;;;;91.32;45.72;;;3.80;99.90;;;;;;5035767;28;20404;-75
2020/12/05 10:13:38;;;;;;;91.72;44.95;;;3.80;99.90;;;;;;5034213;28;20055;-75
2020/12/05 10:16:04;;;;;;;90.35;44.22;;;3.80;99.90;;;;;;5035451;28;20497;-74
2020/12/05 10:18:29;;;;;;;86.25;45.47;;;3.80;99.90;;;;;;5035480;28;20030;-74
2020/12/05 10:20:55;;;;;;;86.75;45.97;;;3.80;99.90;;;;;;5034278;28;20117;-74
2020/12/05 10:23:20;;;;;;;90.30;46.35;;;3.80;99.90;;;;;;5035657;28;20026;-75
2020/12/05 10:25:46;;;;;;;90.65;47.20;;;3.80;99.90;;;;;;5035263;28;20493;-75
2020/12/05 10:28:11;;;;;;;94.82;45.67;;;3.70;99.90;;;;;;5035559;28;20032;-75
2020/12/05 10:30:37;;;;;;;100.15;49.38;;;3.70;99.90;;;;;;5034105;28;20021;-75
2020/12/05 10:33:02;;;;;;;86.00;46.83;;;3.70;99.90;;;;;;5035176;28;20087;-74
2020/12/05 10:35:28;;;;;;;95.97;49.20;;;3.70;99.90;;;;;;5034005;28;20076;-75
2020/12/05 10:37:53;;;;;;;101.43;49.30;;;3.60;99.90;;;;;;5035265;28;20032;-75
2020/12/05 10:40:18;;;;;;;109.65;47.95;;;3.60;99.90;;;;;;5035141;28;20127;-75
2020/12/05 10:42:44;;;;;;;98.90;47.83;;;3.60;99.90;;;;;;5035276;28;20030;-75
2020/12/05 10:45:09;;;;;;;86.18;46.00;;;3.70;99.90;;;;;;5035019;28;20018;-75
2020/12/05 10:47:35;;;;;;;103.25;48.78;;;3.60;99.90;;;;;;5034791;28;20030;-75
2020/12/05 10:50:00;;;;;;;96.55;49.33;;;3.60;99.90;;;;;;5033802;28;20029;-75
2020/12/05 10:52:26;;;;;;;99.82;49.25;;;3.60;99.90;;;;;;5035085;28;20051;-75
2020/12/05 10:54:52;;;;;;;97.15;49.83;;;3.40;99.90;;;;;;5034803;28;20463;-75
2020/12/05 10:57:17;;;;;;;103.63;49.95;;;3.40;99.90;;;;;;5034933;28;20120;-75
2020/12/05 10:59:43;;;;;;;100.65;47.30;;;3.30;99.90;;;;;;5034949;28;20045;-73
2020/12/05 11:02:09;;;;;;;104.10;50.72;;;3.20;99.90;;;;;;5034613;28;20104;-75
2020/12/05 11:04:34;;;;;;;107.80;49.42;;;3.20;99.90;;;;;;5034743;28;20488;-74
2020/12/05 11:07:00;;;;;;;100.63;51.35;;;3.10;99.90;;;;;;5034836;28;20065;-75
2020/12/05 11:09:25;;;;;;;97.78;49.88;;;3.10;99.90;;;;;;5033551;28;20025;-74
2020/12/05 11:11:51;;;;;;;101.55;51.13;;;3.10;99.90;;;;;;5034543;28;20663;-74
2020/12/05 11:14:17;;;;;;;103.47;51.40;;;3.00;99.90;;;;;;5034508;28;20025;-74
2020/12/05 11:16:42;;;;;;;106.93;53.53;;;3.00;99.90;;;;;;5034398;28;20112;-74
2020/12/05 11:19:07;;;;;;;104.47;52.60;;;2.90;99.90;;;;;;5033894;28;20513;-74
2020/12/05 11:21:33;;;;;;;104.65;50.80;;;2.90;99.90;;;;;;5034527;28;20045;-74
2020/12/05 11:23:58;;;;;;;106.25;51.95;;;2.90;99.90;;;;;;5034342;28;20029;-74
2020/12/05 11:26:24;;;;;;;108.15;51.35;;;2.80;99.90;;;;;;5033081;28;20389;-74
2020/12/05 11:28:50;;;;;;;102.20;50.95;;;2.80;99.90;;;;;;5034458;28;20017;-74
2020/12/05 11:31:16;;;;;;;103.82;52.35;;;2.80;99.90;;;;;;5034054;28;20049;-75
2020/12/05 11:33:42;;;;;;;111.00;54.05;;;2.80;99.90;;;;;;5032944;28;20021;-75
2020/12/05 11:36:08;;;;;;;98.60;50.03;;;2.80;99.90;;;;;;5034058;28;20391;-74
2020/12/05 11:38:33;;;;;;;108.22;53.53;;;2.80;99.90;;;;;;5033035;28;20390;-74
2020/12/05 11:40:59;;;;;;;105.60;53.05;;;2.90;99.90;;;;;;5034159;28;20033;-75
2020/12/05 11:43:24;;;;;;;108.47;53.55;;;2.90;99.90;;;;;;5034120;28;20013;-74
2020/12/05 11:45:50;;;;;;;109.50;53.47;;;3.00;99.90;;;;;;5032522;28;20066;-74
2020/12/05 11:48:15;;;;;;;108.43;53.38;;;2.90;99.90;;;;;;5034015;28;20053;-74
2020/12/05 11:50:41;;;;;;;101.88;53.80;;;2.90;99.90;;;;;;5032768;28;20017;-74
2020/12/05 11:53:06;;;;;;;114.00;53.80;;;2.90;99.90;;;;;;5033926;28;20104;-74
2020/12/05 11:55:32;;;;;;;102.97;54.40;;;2.90;99.90;;;;;;5032576;28;20022;-74
2020/12/05 11:57:58;;;;;;;101.00;52.13;;;2.90;99.90;;;;;;5033829;28;20030;-75
2020/12/05 12:00:25;;;;;;;111.82;54.03;;;2.90;99.90;;;;;;5033447;28;20028;-74
2020/12/05 12:02:51;;;;;;;111.28;53.42;;;2.90;99.90;;;;;;5033822;28;20108;-74
2020/12/05 12:05:16;;;;;;;111.53;53.45;;;3.00;99.90;;;;;;5033603;28;20021;-74
2020/12/05 12:07:42;;;;;;;101.47;50.83;;;3.00;99.90;;;;;;5033781;28;20033;-76
2020/12/05 12:10:07;;;;;;;102.10;51.28;;;3.10;99.90;;;;;;5033551;28;20037;-75
2020/12/05 12:12:33;;;;;;;111.93;53.30;;;3.00;99.90;;;;;;5033541;28;20061;-75
2020/12/05 12:14:58;;;;;;;112.25;56.60;;;3.00;99.90;;;;;;5033273;28;20033;-76
2020/12/05 12:17:23;;;;;;;112.28;54.67;;;3.00;99.90;;;;;;5033469;28;20025;-76
2020/12/05 12:19:49;;;;;;;110.93;53.50;;;3.00;99.90;;;;;;5033390;28;20029;-76
2020/12/05 12:22:14;;;;;;;98.63;50.58;;;2.90;99.90;;;;;;5032009;28;20025;-75
2020/12/05 12:24:40;;;;;;;105.68;52.58;;;2.90;99.90;;;;;;5033151;28;20474;-75
2020/12/05 12:27:05;;;;;;;109.55;52.08;;;2.90;99.90;;;;;;5033425;28;20040;-76
2020/12/05 12:29:31;;;;;;;94.70;51.28;;;3.00;99.90;;;;;;5032389;28;20061;-77
2020/12/05 12:31:56;;;;;;;94.75;49.08;;;2.90;99.90;;;;;;5032671;28;20397;-76
2020/12/05 12:34:22;;;;;;;91.38;50.10;;;2.90;99.90;;;;;;5032967;28;20034;-75
2020/12/05 12:36:50;;;;;;;96.72;51.20;;;2.80;99.90;;;;;;5032968;28;20029;-75